首页
METAR-TAF:

METAR-TAF

机场 :

Montrose Regional Airport

Montrose, 科羅拉多州, 美国

纬度: 38-30-18N, 经度: 107-53-51W, 海拔: 1755米

当前天气观测

该预报发布于1小时和9分钟前的03:53 UTC
风速10节,风向南转南东
温度 19°C
湿度 28%
气压 1023 hPa
能見度: 16.1公里
天空无云

METAR: KMTJ 280353Z AUTO 16010KT 10SM CLR 19/00 A3022 RMK AO2 SLP164 T01940000

时间: 23:02 (05:02 UTC)

预报

该预报发布于5小时和42分钟前的23:20 UTC
预报有效从28日的 00点(UTC)到 28日的 24点(UTC)
风速5节,风向北转西北
能見度: 10公里
少量云层高于10000英尺
从 28日的 0200点(UTC)
风速6节,风向东南
能見度: 10公里
天空无云
从 28日的 0600点(UTC)
风速11节,风向东南
能見度: 10公里
天空无云
从 28日的 1500点(UTC)
风速3节,风向多变
能見度: 10公里
天空无云
从 28日的 2000点(UTC)
风速6节,风向西转西北
能見度: 10公里
少量云层高于13000英尺
少量云层高于25000英尺
从 28日的 2100点(UTC)
风速7节,风向西
能見度: 10公里
少量云层高于13000英尺
散云层高于25000英尺

TAF: KMTJ 272320Z 2800/2824 33005KT P6SM FEW100 FM280200 13006KT P6SM SKC FM280600 14011KT P6SM SKC FM281500 VRB03KT P6SM SKC FM282000 29006KT P6SM FEW130 FEW250 FM282100 28007KT P6SM FEW130 SCT250

超过4000个机场的气象观测和天气预报(METAR&TAF报告)。

可查询的气象台以黄色和红色小点在地图上表示。

将鼠标移到小点上方,可查看气象台名称。

然后点击查看天气观测和预报。

如需切换地图:点击带黑十字的绿色按钮放大地图;点击带横线的绿色按钮缩小地图;或者点击绿色箭头查看邻近地区的地图。


METAR-TAF: